sensor_id;sensor_type;location;lat;lon;timestamp;pressure;altitude;pressure_sealevel;temperature;humidity
40013;BME280;37387;42.672;23.334;2023-02-16T00:10:44;956.5;;;-1.5;100.0
40013;BME280;37387;42.672;23.334;2023-02-16T00:16:44;956.5;;;-1.6;100.0
40013;BME280;37387;42.672;23.334;2023-02-16T00:30:44;956.4;;;-1.7;100.0
40013;BME280;37387;42.672;23.334;2023-02-16T00:31:44;956.4;;;-1.6;100.0
40013;BME280;37387;42.672;23.334;2023-02-16T00:35:44;956.4;;;-1.5;100.0
40013;BME280;37387;42.672;23.334;2023-02-16T00:41:44;956.4;;;-1.4;100.0
40013;BME280;37387;42.672;23.334;2023-02-16T00:45:44;956.4;;;-1.5;100.0
40013;BME280;37387;42.672;23.334;2023-02-16T00:58:44;956.3;;;-1.4;100.0
40013;BME280;37387;42.672;23.334;2023-02-16T01:01:44;956.3;;;-1.5;100.0
40013;BME280;37387;42.672;23.334;2023-02-16T01:18:44;956.3;;;-1.6;100.0
40013;BME280;37387;42.672;23.334;2023-02-16T01:24:44;956.2;;;-1.7;100.0
40013;BME280;37387;42.672;23.334;2023-02-16T01:26:45;956.1;;;-1.8;100.0
40013;BME280;37387;42.672;23.334;2023-02-16T01:29:44;956.1;;;-1.7;100.0
40013;BME280;37387;42.672;23.334;2023-02-16T01:31:44;956.1;;;-1.8;100.0
40013;BME280;37387;42.672;23.334;2023-02-16T01:32:44;956.1;;;-1.7;100.0
40013;BME280;37387;42.672;23.334;2023-02-16T01:33:44;956.1;;;-1.8;100.0
40013;BME280;37387;42.672;23.334;2023-02-16T01:34:44;956.1;;;-1.7;100.0
40013;BME280;37387;42.672;23.334;2023-02-16T01:36:45;956.1;;;-1.8;100.0
40013;BME280;37387;42.672;23.334;2023-02-16T01:38:44;956.0;;;-1.9;100.0
40013;BME280;37387;42.672;23.334;2023-02-16T01:39:44;956.0;;;-1.8;100.0
40013;BME280;37387;42.672;23.334;2023-02-16T01:50:46;955.9;;;-1.9;100.0
40013;BME280;37387;42.672;23.334;2023-02-16T02:16:51;955.9;;;-2.1;100.0
40013;BME280;37387;42.672;23.334;2023-02-16T02:17:44;955.9;;;-2.0;100.0
40013;BME280;37387;42.672;23.334;2023-02-16T02:18:44;955.9;;;-2.1;100.0
40013;BME280;37387;42.672;23.334;2023-02-16T02:20:47;955.9;;;-2.2;100.0
40013;BME280;37387;42.672;23.334;2023-02-16T02:27:44;955.9;;;-2.3;100.0
40013;BME280;37387;42.672;23.334;2023-02-16T02:47:45;955.8;;;-2.4;100.0
40013;BME280;37387;42.672;23.334;2023-02-16T02:52:44;955.8;;;-2.5;100.0
40013;BME280;37387;42.672;23.334;2023-02-16T02:53:45;955.8;;;-2.3;100.0
40013;BME280;37387;42.672;23.334;2023-02-16T02:59:46;955.9;;;-2.4;100.0
40013;BME280;37387;42.672;23.334;2023-02-16T03:02:44;955.9;;;-2.3;100.0
40013;BME280;37387;42.672;23.334;2023-02-16T03:07:45;955.9;;;-2.2;100.0
40013;BME280;37387;42.672;23.334;2023-02-16T03:08:45;955.9;;;-2.3;100.0
40013;BME280;37387;42.672;23.334;2023-02-16T03:12:44;955.9;;;-2.2;100.0
40013;BME280;37387;42.672;23.334;2023-02-16T03:13:45;955.9;;;-2.3;100.0
40013;BME280;37387;42.672;23.334;2023-02-16T03:17:44;955.9;;;-2.2;100.0
40013;BME280;37387;42.672;23.334;2023-02-16T03:18:44;955.9;;;-2.3;100.0
40013;BME280;37387;42.672;23.334;2023-02-16T03:26:44;955.9;;;-2.4;100.0
40013;BME280;37387;42.672;23.334;2023-02-16T03:31:44;955.8;;;-2.5;100.0
40013;BME280;37387;42.672;23.334;2023-02-16T03:32:44;955.8;;;-2.4;100.0
40013;BME280;37387;42.672;23.334;2023-02-16T03:39:44;955.8;;;-2.5;100.0
40013;BME280;37387;42.672;23.334;2023-02-16T03:42:47;955.7;;;-2.6;100.0
40013;BME280;37387;42.672;23.334;2023-02-16T03:45:44;955.8;;;-2.5;100.0
40013;BME280;37387;42.672;23.334;2023-02-16T03:47:44;955.8;;;-2.4;100.0
40013;BME280;37387;42.672;23.334;2023-02-16T03:48:44;955.8;;;-2.2;100.0
40013;BME280;37387;42.672;23.334;2023-02-16T03:50:44;955.8;;;-2.3;100.0
40013;BME280;37387;42.672;23.334;2023-02-16T03:52:44;955.8;;;-2.4;100.0
40013;BME280;37387;42.672;23.334;2023-02-16T03:56:44;955.9;;;-2.5;100.0
40013;BME280;37387;42.672;23.334;2023-02-16T04:06:44;955.8;;;-2.4;100.0
40013;BME280;37387;42.672;23.334;2023-02-16T04:07:44;955.8;;;-2.5;100.0
40013;BME280;37387;42.672;23.334;2023-02-16T04:12:44;955.7;;;-2.6;100.0
40013;BME280;37387;42.672;23.334;2023-02-16T04:15:44;955.7;;;-2.7;100.0
40013;BME280;37387;42.672;23.334;2023-02-16T04:21:44;955.7;;;-2.8;100.0
40013;BME280;37387;42.672;23.334;2023-02-16T04:26:44;955.7;;;-2.9;100.0
40013;BME280;37387;42.672;23.334;2023-02-16T04:31:44;955.6;;;-2.8;100.0
40013;BME280;37387;42.672;23.334;2023-02-16T04:33:44;955.6;;;-2.9;100.0
40013;BME280;37387;42.672;23.334;2023-02-16T04:42:44;955.7;;;-3.0;100.0
40013;BME280;37387;42.672;23.334;2023-02-16T04:45:44;955.7;;;-3.1;100.0
40013;BME280;37387;42.672;23.334;2023-02-16T04:53:44;955.8;;;-3.2;100.0
40013;BME280;37387;42.672;23.334;2023-02-16T05:05:44;955.8;;;-3.3;100.0
40013;BME280;37387;42.672;23.334;2023-02-16T05:10:44;955.8;;;-3.2;100.0
40013;BME280;37387;42.672;23.334;2023-02-16T05:23:44;955.9;;;-3.3;100.0
40013;BME280;37387;42.672;23.334;2023-02-16T05:25:44;955.9;;;-3.2;100.0
40013;BME280;37387;42.672;23.334;2023-02-16T05:28:44;955.9;;;-3.1;100.0
40013;BME280;37387;42.672;23.334;2023-02-16T05:32:44;955.9;;;-3.0;100.0
40013;BME280;37387;42.672;23.334;2023-02-16T05:33:44;956.0;;;-2.8;100.0
40013;BME280;37387;42.672;23.334;2023-02-16T05:34:44;956.0;;;-2.7;100.0
40013;BME280;37387;42.672;23.334;2023-02-16T05:35:44;956.0;;;-2.4;100.0
40013;BME280;37387;42.672;23.334;2023-02-16T05:36:44;956.0;;;-2.2;100.0
40013;BME280;37387;42.672;23.334;2023-02-16T05:37:44;956.0;;;-2.0;100.0
40013;BME280;37387;42.672;23.334;2023-02-16T05:38:44;956.1;;;-1.7;100.0
40013;BME280;37387;42.672;23.334;2023-02-16T05:39:44;956.1;;;-1.5;100.0
40013;BME280;37387;42.672;23.334;2023-02-16T05:40:44;956.0;;;-1.3;100.0
40013;BME280;37387;42.672;23.334;2023-02-16T05:41:44;956.0;;;-1.2;100.0
40013;BME280;37387;42.672;23.334;2023-02-16T05:44:44;956.1;;;-1.3;100.0
40013;BME280;37387;42.672;23.334;2023-02-16T05:45:44;956.1;;;-1.5;100.0
40013;BME280;37387;42.672;23.334;2023-02-16T05:46:44;956.1;;;-1.4;100.0
40013;BME280;37387;42.672;23.334;2023-02-16T05:47:44;956.1;;;-1.2;100.0
40013;BME280;37387;42.672;23.334;2023-02-16T05:48:44;956.1;;;-0.8;100.0
40013;BME280;37387;42.672;23.334;2023-02-16T05:49:44;956.1;;;-0.6;100.0
40013;BME280;37387;42.672;23.334;2023-02-16T05:50:44;956.1;;;-0.1;100.0
40013;BME280;37387;42.672;23.334;2023-02-16T05:51:44;956.2;;;0.5;100.0
40013;BME280;37387;42.672;23.334;2023-02-16T05:52:44;956.1;;;0.8;100.0
40013;BME280;37387;42.672;23.334;2023-02-16T05:53:44;956.1;;;1.4;100.0
40013;BME280;37387;42.672;23.334;2023-02-16T05:54:44;956.3;;;1.8;100.0
40013;BME280;37387;42.672;23.334;2023-02-16T05:55:44;956.3;;;2.3;100.0
40013;BME280;37387;42.672;23.334;2023-02-16T05:56:44;956.3;;;2.8;100.0
40013;BME280;37387;42.672;23.334;2023-02-16T05:57:44;956.3;;;3.0;100.0
40013;BME280;37387;42.672;23.334;2023-02-16T05:58:44;956.3;;;3.3;100.0
40013;BME280;37387;42.672;23.334;2023-02-16T05:59:44;956.3;;;3.9;100.0
40013;BME280;37387;42.672;23.334;2023-02-16T06:00:44;956.4;;;4.3;100.0
40013;BME280;37387;42.672;23.334;2023-02-16T06:01:44;956.4;;;4.9;100.0
40013;BME280;37387;42.672;23.334;2023-02-16T06:02:44;956.3;;;5.3;100.0
40013;BME280;37387;42.672;23.334;2023-02-16T06:03:44;956.4;;;5.8;99.2
40013;BME280;37387;42.672;23.334;2023-02-16T06:05:44;956.4;;;6.2;85.9
40013;BME280;37387;42.672;23.334;2023-02-16T06:06:44;956.5;;;6.7;86.4
40013;BME280;37387;42.672;23.334;2023-02-16T06:07:44;956.5;;;7.0;86.4
40013;BME280;37387;42.672;23.334;2023-02-16T06:08:44;956.6;;;6.0;79.6
40013;BME280;37387;42.672;23.334;2023-02-16T06:09:44;956.5;;;5.6;73.0
40013;BME280;37387;42.672;23.334;2023-02-16T06:10:44;956.5;;;6.1;76.8
40013;BME280;37387;42.672;23.334;2023-02-16T06:11:44;956.5;;;6.7;77.8
40013;BME280;37387;42.672;23.334;2023-02-16T06:12:44;956.5;;;7.5;77.8
40013;BME280;37387;42.672;23.334;2023-02-16T06:13:44;956.6;;;7.8;71.0
40013;BME280;37387;42.672;23.334;2023-02-16T06:14:44;956.6;;;6.9;71.0
40013;BME280;37387;42.672;23.334;2023-02-16T06:18:44;956.6;;;6.5;68.3
40013;BME280;37387;42.672;23.334;2023-02-16T06:19:44;956.6;;;5.9;68.8
40013;BME280;37387;42.672;23.334;2023-02-16T06:20:44;956.6;;;5.1;69.5
40013;BME280;37387;42.672;23.334;2023-02-16T06:21:44;956.6;;;5.8;72.7
40013;BME280;37387;42.672;23.334;2023-02-16T06:22:44;956.6;;;6.8;72.7
40013;BME280;37387;42.672;23.334;2023-02-16T06:24:44;956.7;;;7.9;68.7
40013;BME280;37387;42.672;23.334;2023-02-16T06:25:47;956.6;;;7.6;65.4
40013;BME280;37387;42.672;23.334;2023-02-16T06:26:44;956.6;;;8.0;62.3
40013;BME280;37387;42.672;23.334;2023-02-16T06:27:44;956.6;;;8.6;58.5
40013;BME280;37387;42.672;23.334;2023-02-16T06:28:44;956.7;;;9.0;57.1
40013;BME280;37387;42.672;23.334;2023-02-16T06:29:44;956.7;;;8.8;57.3
40013;BME280;37387;42.672;23.334;2023-02-16T06:31:44;956.7;;;8.6;55.4
40013;BME280;37387;42.672;23.334;2023-02-16T06:32:44;956.7;;;7.5;54.6
40013;BME280;37387;42.672;23.334;2023-02-16T06:33:44;956.7;;;7.2;57.9
40013;BME280;37387;42.672;23.334;2023-02-16T06:34:44;956.7;;;7.0;60.4
40013;BME280;37387;42.672;23.334;2023-02-16T06:35:44;956.7;;;6.6;62.6
40013;BME280;37387;42.672;23.334;2023-02-16T06:36:44;956.8;;;6.7;62.6
40013;BME280;37387;42.672;23.334;2023-02-16T06:37:44;956.8;;;6.9;63.4
40013;BME280;37387;42.672;23.334;2023-02-16T06:38:44;956.7;;;7.6;62.2
40013;BME280;37387;42.672;23.334;2023-02-16T06:39:44;956.7;;;8.8;62.2
40013;BME280;37387;42.672;23.334;2023-02-16T06:40:44;956.8;;;8.1;57.0
40013;BME280;37387;42.672;23.334;2023-02-16T06:41:44;956.8;;;7.8;57.1
40013;BME280;37387;42.672;23.334;2023-02-16T06:42:44;956.8;;;7.7;57.1
40013;BME280;37387;42.672;23.334;2023-02-16T06:43:44;956.8;;;6.9;60.7
40013;BME280;37387;42.672;23.334;2023-02-16T06:44:44;956.8;;;6.5;60.8
40013;BME280;37387;42.672;23.334;2023-02-16T06:45:44;956.8;;;7.3;62.8
40013;BME280;37387;42.672;23.334;2023-02-16T06:46:45;956.8;;;7.7;61.6
40013;BME280;37387;42.672;23.334;2023-02-16T06:47:44;956.8;;;6.7;59.2
40013;BME280;37387;42.672;23.334;2023-02-16T06:48:44;956.8;;;6.9;60.9
40013;BME280;37387;42.672;23.334;2023-02-16T06:49:44;956.8;;;7.4;63.1
40013;BME280;37387;42.672;23.334;2023-02-16T06:50:44;956.8;;;7.1;60.7
40013;BME280;37387;42.672;23.334;2023-02-16T06:51:44;956.8;;;7.2;60.4
40013;BME280;37387;42.672;23.334;2023-02-16T06:52:44;956.8;;;7.6;60.4
40013;BME280;37387;42.672;23.334;2023-02-16T06:53:44;956.8;;;8.1;59.4
40013;BME280;37387;42.672;23.334;2023-02-16T06:54:44;956.9;;;9.1;58.2
40013;BME280;37387;42.672;23.334;2023-02-16T06:55:44;956.9;;;9.6;55.7
40013;BME280;37387;42.672;23.334;2023-02-16T06:56:44;956.8;;;9.0;53.0
40013;BME280;37387;42.672;23.334;2023-02-16T06:57:44;956.8;;;8.4;54.5
40013;BME280;37387;42.672;23.334;2023-02-16T06:58:44;956.8;;;8.0;56.3
40013;BME280;37387;42.672;23.334;2023-02-16T06:59:44;956.8;;;7.7;56.3
40013;BME280;37387;42.672;23.334;2023-02-16T07:00:44;956.8;;;7.9;57.4
40013;BME280;37387;42.672;23.334;2023-02-16T07:01:44;956.8;;;7.6;57.9
40013;BME280;37387;42.672;23.334;2023-02-16T07:02:44;956.8;;;7.1;57.4
40013;BME280;37387;42.672;23.334;2023-02-16T07:03:44;956.8;;;7.2;59.7
40013;BME280;37387;42.672;23.334;2023-02-16T07:04:44;956.8;;;6.2;63.3
40013;BME280;37387;42.672;23.334;2023-02-16T07:05:44;956.8;;;6.7;63.3
40013;BME280;37387;42.672;23.334;2023-02-16T07:06:44;956.8;;;7.2;64.6
40013;BME280;37387;42.672;23.334;2023-02-16T07:07:44;956.8;;;8.4;64.0
40013;BME280;37387;42.672;23.334;2023-02-16T07:08:44;956.8;;;9.1;59.6
40013;BME280;37387;42.672;23.334;2023-02-16T07:09:44;956.8;;;9.8;56.6
40013;BME280;37387;42.672;23.334;2023-02-16T07:10:45;956.8;;;10.6;54.6
40013;BME280;37387;42.672;23.334;2023-02-16T07:11:44;956.8;;;9.1;50.9
40013;BME280;37387;42.672;23.334;2023-02-16T07:12:44;956.8;;;8.9;52.3
40013;BME280;37387;42.672;23.334;2023-02-16T07:13:44;956.7;;;8.4;55.2
40013;BME280;37387;42.672;23.334;2023-02-16T07:14:44;956.7;;;8.3;55.2
40013;BME280;37387;42.672;23.334;2023-02-16T07:15:44;956.7;;;8.5;56.0
40013;BME280;37387;42.672;23.334;2023-02-16T07:16:44;956.7;;;8.7;54.8
40013;BME280;37387;42.672;23.334;2023-02-16T07:17:44;956.7;;;9.6;54.9
40013;BME280;37387;42.672;23.334;2023-02-16T07:18:44;956.7;;;10.5;52.3
40013;BME280;37387;42.672;23.334;2023-02-16T07:19:44;956.7;;;11.1;50.9
40013;BME280;37387;42.672;23.334;2023-02-16T07:20:44;956.7;;;10.4;48.8
40013;BME280;37387;42.672;23.334;2023-02-16T07:21:44;956.6;;;9.8;50.5
40013;BME280;37387;42.672;23.334;2023-02-16T07:22:44;956.6;;;10.5;50.5
40013;BME280;37387;42.672;23.334;2023-02-16T07:23:44;956.7;;;10.6;48.7
40013;BME280;37387;42.672;23.334;2023-02-16T07:24:44;956.6;;;11.9;49.1
40013;BME280;37387;42.672;23.334;2023-02-16T07:25:44;956.6;;;10.4;46.5
40013;BME280;37387;42.672;23.334;2023-02-16T07:26:44;956.6;;;11.0;46.9
40013;BME280;37387;42.672;23.334;2023-02-16T07:27:44;956.5;;;11.4;47.8
40013;BME280;37387;42.672;23.334;2023-02-16T07:28:44;956.5;;;10.9;45.8
40013;BME280;37387;42.672;23.334;2023-02-16T07:29:44;956.6;;;10.8;46.9
40013;BME280;37387;42.672;23.334;2023-02-16T07:30:44;956.5;;;8.9;46.9
40013;BME280;37387;42.672;23.334;2023-02-16T07:31:44;956.5;;;7.8;50.4
40013;BME280;37387;42.672;23.334;2023-02-16T07:32:44;956.5;;;8.4;56.1
40013;BME280;37387;42.672;23.334;2023-02-16T07:33:44;956.5;;;7.2;55.6
40013;BME280;37387;42.672;23.334;2023-02-16T07:35:44;956.5;;;8.4;59.7
40013;BME280;37387;42.672;23.334;2023-02-16T07:36:44;956.5;;;9.6;56.7
40013;BME280;37387;42.672;23.334;2023-02-16T07:37:44;956.5;;;9.9;52.5
40013;BME280;37387;42.672;23.334;2023-02-16T07:38:44;956.6;;;11.2;51.9
40013;BME280;37387;42.672;23.334;2023-02-16T07:39:44;956.5;;;11.5;46.7
40013;BME280;37387;42.672;23.334;2023-02-16T07:40:44;956.5;;;12.1;45.6
40013;BME280;37387;42.672;23.334;2023-02-16T07:41:44;956.5;;;12.2;45.6
40013;BME280;37387;42.672;23.334;2023-02-16T07:42:44;956.5;;;12.1;44.2
40013;BME280;37387;42.672;23.334;2023-02-16T07:43:44;956.5;;;11.9;44.9
40013;BME280;37387;42.672;23.334;2023-02-16T07:45:44;956.5;;;11.4;45.1
40013;BME280;37387;42.672;23.334;2023-02-16T07:46:44;956.5;;;10.8;45.1
40013;BME280;37387;42.672;23.334;2023-02-16T07:47:44;956.5;;;11.7;46.7
40013;BME280;37387;42.672;23.334;2023-02-16T07:48:45;956.5;;;12.2;44.3
40013;BME280;37387;42.672;23.334;2023-02-16T07:49:44;956.5;;;11.9;44.3
40013;BME280;37387;42.672;23.334;2023-02-16T07:50:44;956.5;;;11.7;44.2
40013;BME280;37387;42.672;23.334;2023-02-16T07:51:44;956.5;;;11.6;44.8
40013;BME280;37387;42.672;23.334;2023-02-16T07:52:44;956.5;;;12.5;44.8
40013;BME280;37387;42.672;23.334;2023-02-16T07:53:44;956.6;;;13.3;44.0
40013;BME280;37387;42.672;23.334;2023-02-16T07:54:44;956.5;;;13.1;41.8
40013;BME280;37387;42.672;23.334;2023-02-16T07:55:44;956.5;;;12.5;41.8
40013;BME280;37387;42.672;23.334;2023-02-16T07:56:44;956.5;;;12.1;42.7
40013;BME280;37387;42.672;23.334;2023-02-16T07:57:44;956.5;;;12.5;42.9
40013;BME280;37387;42.672;23.334;2023-02-16T07:58:44;956.5;;;11.9;42.9
40013;BME280;37387;42.672;23.334;2023-02-16T07:59:44;956.6;;;12.1;44.1
40013;BME280;37387;42.672;23.334;2023-02-16T08:00:44;956.6;;;11.5;44.1
40013;BME280;37387;42.672;23.334;2023-02-16T08:01:44;956.5;;;11.0;45.1
40013;BME280;37387;42.672;23.334;2023-02-16T08:02:44;956.5;;;9.9;45.1
40013;BME280;37387;42.672;23.334;2023-02-16T08:03:44;956.5;;;10.4;47.2
40013;BME280;37387;42.672;23.334;2023-02-16T08:04:44;956.6;;;10.6;48.1
40013;BME280;37387;42.672;23.334;2023-02-16T08:05:44;956.6;;;11.5;48.0
40013;BME280;37387;42.672;23.334;2023-02-16T08:06:44;956.6;;;10.7;46.0
40013;BME280;37387;42.672;23.334;2023-02-16T08:07:44;956.6;;;8.8;46.5
40013;BME280;37387;42.672;23.334;2023-02-16T08:08:44;956.5;;;8.7;48.7
40013;BME280;37387;42.672;23.334;2023-02-16T08:09:44;956.5;;;10.2;52.7
40013;BME280;37387;42.672;23.334;2023-02-16T08:11:44;956.6;;;10.5;48.6
40013;BME280;37387;42.672;23.334;2023-02-16T08:12:44;956.6;;;11.4;46.9
40013;BME280;37387;42.672;23.334;2023-02-16T08:13:44;956.6;;;11.3;46.9
40013;BME280;37387;42.672;23.334;2023-02-16T08:14:44;956.6;;;10.2;46.0
40013;BME280;37387;42.672;23.334;2023-02-16T08:15:44;956.6;;;9.6;47.7
40013;BME280;37387;42.672;23.334;2023-02-16T08:17:44;956.5;;;9.4;49.2
40013;BME280;37387;42.672;23.334;2023-02-16T08:18:44;956.6;;;9.5;50.5
40013;BME280;37387;42.672;23.334;2023-02-16T08:19:44;956.6;;;9.8;50.6
40013;BME280;37387;42.672;23.334;2023-02-16T08:20:44;956.6;;;9.2;50.4
40013;BME280;37387;42.672;23.334;2023-02-16T08:21:44;956.6;;;8.0;51.2
40013;BME280;37387;42.672;23.334;2023-02-16T08:22:44;956.6;;;8.7;54.4
40013;BME280;37387;42.672;23.334;2023-02-16T08:23:44;956.6;;;9.3;54.8
40013;BME280;37387;42.672;23.334;2023-02-16T08:24:44;956.6;;;9.6;50.8
40013;BME280;37387;42.672;23.334;2023-02-16T08:25:44;956.6;;;9.7;50.8
40013;BME280;37387;42.672;23.334;2023-02-16T08:26:44;956.7;;;10.6;51.2
40013;BME280;37387;42.672;23.334;2023-02-16T08:27:44;956.7;;;11.5;49.1
40013;BME280;37387;42.672;23.334;2023-02-16T08:28:44;956.7;;;12.0;47.6
40013;BME280;37387;42.672;23.334;2023-02-16T08:29:44;956.7;;;11.6;45.7
40013;BME280;37387;42.672;23.334;2023-02-16T08:30:44;956.7;;;12.2;46.1
40013;BME280;37387;42.672;23.334;2023-02-16T08:31:44;956.7;;;12.3;44.6
40013;BME280;37387;42.672;23.334;2023-02-16T08:32:44;956.7;;;12.7;43.6
40013;BME280;37387;42.672;23.334;2023-02-16T08:34:44;956.7;;;13.2;42.8
40013;BME280;37387;42.672;23.334;2023-02-16T08:35:44;956.8;;;13.6;42.8
40013;BME280;37387;42.672;23.334;2023-02-16T08:37:44;956.8;;;13.1;41.6
40013;BME280;37387;42.672;23.334;2023-02-16T08:38:44;956.8;;;12.7;42.0
40013;BME280;37387;42.672;23.334;2023-02-16T08:39:44;956.8;;;12.9;42.9
40013;BME280;37387;42.672;23.334;2023-02-16T08:40:46;956.7;;;13.5;41.8
40013;BME280;37387;42.672;23.334;2023-02-16T08:41:44;956.7;;;13.4;41.8
40013;BME280;37387;42.672;23.334;2023-02-16T08:42:44;956.7;;;14.0;41.6
40013;BME280;37387;42.672;23.334;2023-02-16T08:43:44;956.7;;;14.4;40.7
40013;BME280;37387;42.672;23.334;2023-02-16T08:45:44;956.7;;;14.8;40.6
40013;BME280;37387;42.672;23.334;2023-02-16T08:46:44;956.7;;;15.1;40.4
40013;BME280;37387;42.672;23.334;2023-02-16T08:47:44;956.7;;;15.3;39.1
40013;BME280;37387;42.672;23.334;2023-02-16T08:48:44;956.7;;;14.8;38.2
40013;BME280;37387;42.672;23.334;2023-02-16T08:49:44;956.7;;;14.6;38.2
40013;BME280;37387;42.672;23.334;2023-02-16T08:50:44;956.7;;;14.1;39.6
40013;BME280;37387;42.672;23.334;2023-02-16T08:51:45;956.7;;;13.6;40.6
40013;BME280;37387;42.672;23.334;2023-02-16T08:52:44;956.7;;;12.9;40.6
40013;BME280;37387;42.672;23.334;2023-02-16T08:53:44;956.6;;;13.3;42.1
40013;BME280;37387;42.672;23.334;2023-02-16T08:55:49;956.7;;;13.5;41.5
40013;BME280;37387;42.672;23.334;2023-02-16T08:57:44;956.6;;;13.2;41.6
40013;BME280;37387;42.672;23.334;2023-02-16T08:58:44;956.6;;;13.4;41.6
40013;BME280;37387;42.672;23.334;2023-02-16T08:59:44;956.6;;;12.6;41.8
40013;BME280;37387;42.672;23.334;2023-02-16T09:00:44;956.5;;;12.3;43.8
40013;BME280;37387;42.672;23.334;2023-02-16T09:02:44;956.5;;;12.6;42.8
40013;BME280;37387;42.672;23.334;2023-02-16T09:03:44;956.5;;;12.9;43.1
40013;BME280;37387;42.672;23.334;2023-02-16T09:04:44;956.6;;;12.7;42.3
40013;BME280;37387;42.672;23.334;2023-02-16T09:05:44;956.6;;;11.6;42.2
40013;BME280;37387;42.672;23.334;2023-02-16T09:06:44;956.6;;;11.3;43.0
40013;BME280;37387;42.672;23.334;2023-02-16T09:07:44;956.6;;;11.7;45.0
40013;BME280;37387;42.672;23.334;2023-02-16T09:08:44;956.6;;;11.1;44.2
40013;BME280;37387;42.672;23.334;2023-02-16T09:09:44;956.6;;;11.2;45.1
40013;BME280;37387;42.672;23.334;2023-02-16T09:11:44;956.6;;;11.1;45.4
40013;BME280;37387;42.672;23.334;2023-02-16T09:12:44;956.6;;;11.2;46.2
40013;BME280;37387;42.672;23.334;2023-02-16T09:13:44;956.6;;;10.2;46.1
40013;BME280;37387;42.672;23.334;2023-02-16T09:14:44;956.5;;;10.5;46.7
40013;BME280;37387;42.672;23.334;2023-02-16T09:15:44;956.6;;;10.9;48.1
40013;BME280;37387;42.672;23.334;2023-02-16T09:16:44;956.6;;;11.1;46.8
40013;BME280;37387;42.672;23.334;2023-02-16T09:17:44;956.5;;;11.9;46.6
40013;BME280;37387;42.672;23.334;2023-02-16T09:18:44;956.5;;;12.1;45.2
40013;BME280;37387;42.672;23.334;2023-02-16T09:19:44;956.5;;;10.9;43.7
40013;BME280;37387;42.672;23.334;2023-02-16T09:20:44;956.5;;;9.2;45.7
40013;BME280;37387;42.672;23.334;2023-02-16T09:21:44;956.5;;;9.9;49.2
40013;BME280;37387;42.672;23.334;2023-02-16T09:22:44;956.5;;;10.5;49.7
40013;BME280;37387;42.672;23.334;2023-02-16T09:23:44;956.5;;;10.6;48.1
40013;BME280;37387;42.672;23.334;2023-02-16T09:24:44;956.5;;;10.8;47.1
40013;BME280;37387;42.672;23.334;2023-02-16T09:25:44;956.5;;;11.4;46.7
40013;BME280;37387;42.672;23.334;2023-02-16T09:26:44;956.5;;;10.8;46.7
40013;BME280;37387;42.672;23.334;2023-02-16T09:27:44;956.5;;;10.3;47.9
40013;BME280;37387;42.672;23.334;2023-02-16T09:28:44;956.4;;;9.9;49.3
40013;BME280;37387;42.672;23.334;2023-02-16T09:29:44;956.4;;;9.8;49.3
40013;BME280;37387;42.672;23.334;2023-02-16T09:30:44;956.4;;;10.1;50.4
40013;BME280;37387;42.672;23.334;2023-02-16T09:31:44;956.4;;;11.0;49.6
40013;BME280;37387;42.672;23.334;2023-02-16T09:32:44;956.4;;;11.9;45.8
40013;BME280;37387;42.672;23.334;2023-02-16T09:33:44;956.4;;;11.7;45.8
40013;BME280;37387;42.672;23.334;2023-02-16T09:34:44;956.4;;;12.2;45.6
40013;BME280;37387;42.672;23.334;2023-02-16T09:35:44;956.4;;;12.5;44.9
40013;BME280;37387;42.672;23.334;2023-02-16T09:36:44;956.4;;;11.2;44.0
40013;BME280;37387;42.672;23.334;2023-02-16T09:37:44;956.4;;;11.1;45.4
40013;BME280;37387;42.672;23.334;2023-02-16T09:38:44;956.3;;;11.3;46.1
40013;BME280;37387;42.672;23.334;2023-02-16T09:39:44;956.4;;;10.1;47.9
40013;BME280;37387;42.672;23.334;2023-02-16T09:40:44;956.4;;;10.9;47.9
40013;BME280;37387;42.672;23.334;2023-02-16T09:42:49;956.3;;;10.6;46.2
40013;BME280;37387;42.672;23.334;2023-02-16T09:43:44;956.3;;;10.0;48.7
40013;BME280;37387;42.672;23.334;2023-02-16T09:44:47;956.4;;;10.4;48.6
40013;BME280;37387;42.672;23.334;2023-02-16T09:45:45;956.4;;;10.7;48.6
40013;BME280;37387;42.672;23.334;2023-02-16T09:46:44;956.3;;;11.1;48.3
40013;BME280;37387;42.672;23.334;2023-02-16T09:47:45;956.3;;;11.4;46.8
40013;BME280;37387;42.672;23.334;2023-02-16T09:49:44;956.3;;;12.4;46.4
40013;BME280;37387;42.672;23.334;2023-02-16T09:50:44;956.3;;;11.8;45.0
40013;BME280;37387;42.672;23.334;2023-02-16T09:51:44;956.3;;;10.7;45.1
40013;BME280;37387;42.672;23.334;2023-02-16T09:52:47;956.3;;;11.0;47.2
40013;BME280;37387;42.672;23.334;2023-02-16T09:53:44;956.3;;;10.4;47.7
40013;BME280;37387;42.672;23.334;2023-02-16T09:54:45;956.2;;;9.8;48.3
40013;BME280;37387;42.672;23.334;2023-02-16T09:55:45;956.2;;;10.0;50.2
40013;BME280;37387;42.672;23.334;2023-02-16T09:56:45;956.2;;;10.1;49.8
40013;BME280;37387;42.672;23.334;2023-02-16T09:57:48;956.2;;;10.6;49.8
40013;BME280;37387;42.672;23.334;2023-02-16T09:58:45;956.2;;;10.9;49.2
40013;BME280;37387;42.672;23.334;2023-02-16T09:59:46;956.2;;;11.0;48.2
40013;BME280;37387;42.672;23.334;2023-02-16T10:00:46;956.1;;;11.8;47.7
40013;BME280;37387;42.672;23.334;2023-02-16T10:01:46;956.1;;;11.6;46.4
40013;BME280;37387;42.672;23.334;2023-02-16T10:02:46;956.1;;;11.5;46.1
40013;BME280;37387;42.672;23.334;2023-02-16T10:03:48;956.1;;;11.6;46.0
40013;BME280;37387;42.672;23.334;2023-02-16T10:04:47;956.1;;;12.1;46.0
40013;BME280;37387;42.672;23.334;2023-02-16T10:05:45;956.1;;;10.7;46.1
40013;BME280;37387;42.672;23.334;2023-02-16T10:06:49;956.1;;;10.1;46.1
40013;BME280;37387;42.672;23.334;2023-02-16T10:07:48;956.0;;;11.4;49.2
40013;BME280;37387;42.672;23.334;2023-02-16T10:08:44;956.0;;;11.7;47.1
40013;BME280;37387;42.672;23.334;2023-02-16T10:09:46;956.0;;;11.8;46.2
40013;BME280;37387;42.672;23.334;2023-02-16T10:10:46;956.0;;;11.6;46.6
40013;BME280;37387;42.672;23.334;2023-02-16T10:11:45;956.0;;;12.2;45.6
40013;BME280;37387;42.672;23.334;2023-02-16T10:12:45;956.0;;;11.5;45.9
40013;BME280;37387;42.672;23.334;2023-02-16T10:13:46;956.0;;;11.4;45.9
40013;BME280;37387;42.672;23.334;2023-02-16T10:14:44;956.0;;;12.2;46.9
40013;BME280;37387;42.672;23.334;2023-02-16T10:15:44;956.0;;;11.6;45.5
40013;BME280;37387;42.672;23.334;2023-02-16T10:16:46;955.9;;;10.8;47.4
40013;BME280;37387;42.672;23.334;2023-02-16T10:17:44;955.9;;;11.0;47.4
40013;BME280;37387;42.672;23.334;2023-02-16T10:18:45;955.9;;;11.5;48.1
40013;BME280;37387;42.672;23.334;2023-02-16T10:19:45;955.9;;;12.4;47.6
40013;BME280;37387;42.672;23.334;2023-02-16T10:20:45;955.9;;;13.1;45.4
40013;BME280;37387;42.672;23.334;2023-02-16T10:21:45;955.8;;;11.8;43.7
40013;BME280;37387;42.672;23.334;2023-02-16T10:22:46;955.8;;;12.2;44.4
40013;BME280;37387;42.672;23.334;2023-02-16T10:23:45;955.8;;;13.1;45.1
40013;BME280;37387;42.672;23.334;2023-02-16T10:26:45;955.8;;;13.5;42.8